WetterOnline ( https://www.wetteronline.ch )

Wetter aktuell Bielefeld

Aktuelles Wetter: Bad Salzuflen (139m)

6-stündlich | Neueste Meldungen
Ortszeit Temperatur Wetter
Di, 21.01. 13:00 3.5° C wolkenlos
Di, 21.01. 7:00 -0.9° C wolkenlos
Di, 21.01. 1:00 1.1° C wolkenlos
Mo, 20.01. 19:00 3.1° C wolkig
Mo, 20.01. 13:00 4.0° C bedeckt
Mo, 20.01. 7:00 3.0° C bedeckt
Mo, 20.01. 1:00 3.5° C wolkig
So, 19.01. 19:00 4.0° C wolkig
Ortszeit Temperatur Wetter
Di, 21.01. 15:00 4.8° C fast wolkenlos
Di, 21.01. 14:50 4.8° C fast wolkenlos
Di, 21.01. 14:40 5.2° C leicht bewölkt
Di, 21.01. 14:30 4.7° C leicht bewölkt
Di, 21.01. 14:20 4.7° C leicht bewölkt
Di, 21.01. 14:10 4.7° C wolkenlos
Di, 21.01. 14:00 4.4° C wolkenlos
Di, 21.01. 13:30 4.2° C leicht bewölkt
Di, 21.01. 13:00 3.5° C wolkenlos
Di, 21.01. 12:30 3.2° C wolkenlos
Di, 21.01. 12:00 2.5° C wolkenlos
Ortszeit Relative Feuchte Sichtweite
Di, 21.01. 13:00 68% 30 km
Di, 21.01. 7:00 95% 9 km
Di, 21.01. 1:00 95% 3.9 km
Mo, 20.01. 19:00 93% 6 km
Mo, 20.01. 13:00 91% 8 km
Mo, 20.01. 7:00 97% 1.1 km
Mo, 20.01. 1:00 87% 18 km
So, 19.01. 19:00 81% 19 km
Ortszeit Relative Feuchte Sichtweite
Di, 21.01. 15:00 63% 35 km
Di, 21.01. 14:50 63% -
Di, 21.01. 14:40 64% -
Di, 21.01. 14:30 65% 30 km
Di, 21.01. 14:20 65% -
Di, 21.01. 14:10 65% -
Di, 21.01. 14:00 64% 30 km
Di, 21.01. 13:30 70% 30 km
Di, 21.01. 13:00 68% 30 km
Di, 21.01. 12:30 71% 30 km
Di, 21.01. 12:00 78% 26 km
Ortszeit Niederschlagsmenge Niederschlagsart
Di, 21.01. 13:00 0.0 l/m2 in 6 Std. -
Di, 21.01. 7:00 0.0 l/m2 in 12 Std. -
Di, 21.01. 1:00 0.0 l/m2 in 6 Std. -
Mo, 20.01. 19:00 0.0 l/m2 in 12 Std. -
Mo, 20.01. 13:00 0.0 l/m2 in 6 Std. -
Mo, 20.01. 7:00 0.1 l/m2 in 12 Std. Regen
Mo, 20.01. 1:00 0.1 l/m2 in 6 Std. Regen
So, 19.01. 19:00 0.2 l/m2 in 12 Std. Regen
Ortszeit Niederschlagsmenge Niederschlagsart
Di, 21.01. 15:00 0.0 l/m2 in 1 Std. -
Di, 21.01. 14:50 keine Meldung -
Di, 21.01. 14:40 keine Meldung -
Di, 21.01. 14:30 0.0 l/m2 in 1 Std. -
Di, 21.01. 14:20 keine Meldung -
Di, 21.01. 14:10 keine Meldung -
Di, 21.01. 14:00 0.0 l/m2 in 1 Std. -
Di, 21.01. 13:30 0.0 l/m2 in 1 Std. -
Di, 21.01. 13:00 0.0 l/m2 in 1 Std. -
Di, 21.01. 12:30 0.0 l/m2 in 1 Std. -
Di, 21.01. 12:00 0.0 l/m2 in 1 Std. -
Ortszeit Stärke Spitze Richtung
km/h Bft. km/h Grad Sektor
Di, 21.01. 13:00 11 2 25 210° SW
Di, 21.01. 7:00 7 2 14 220° SW
Di, 21.01. 1:00 7 2 14 200° S
Mo, 20.01. 19:00 4 1 18 210° SW
Mo, 20.01. 13:00 7 2 14 200° S
Mo, 20.01. 7:00 6 1 15 200° S
Mo, 20.01. 1:00 7 2 22 330° NW
So, 19.01. 19:00 6 1 22 300° NW
Ortszeit Stärke Spitze Richtung
km/h Bft. km/h Grad Sektor
Di, 21.01. 15:00 7 2 20 230° SW
Di, 21.01. 14:50 7 2 - 230° SW
Di, 21.01. 14:40 9 2 - 210° SW
Di, 21.01. 14:30 13 3 20 210° SW
Di, 21.01. 14:20 13 3 - 210° SW
Di, 21.01. 14:10 11 2 - 220° SW
Di, 21.01. 14:00 13 3 20 220° SW
Di, 21.01. 13:30 11 2 20 210° SW
Di, 21.01. 13:00 11 2 25 210° SW
Di, 21.01. 12:30 13 3 24 230° SW
Di, 21.01. 12:00 9 2 17 200° S
Ortszeit Untergrenze Bedeckung Gattung
total tief tief mittel hoch
Di, 21.01. 13:00 - 0/8 0/8 - - -
Di, 21.01. 7:00 - 0/8 0/8 - - -
Di, 21.01. 1:00 210 m 0/8 0/8 - - -
Mo, 20.01. 19:00 150 m 8/8 1/8 - - -
Mo, 20.01. 13:00 120 m 8/8 8/8 - - -
Mo, 20.01. 7:00 60 m 8/8 8/8 - - -
Mo, 20.01. 1:00 720 m 6/8 6/8 - - -
So, 19.01. 19:00 930 m 6/8 7/8 - - -
Ortszeit Bedeckungsgrad in Achtel und Wolkenuntergrenze
Di, 21.01. 15:00 2(10500m)
Di, 21.01. 14:50 2(10500m)
Di, 21.01. 14:40 3(10500m)
Di, 21.01. 14:30 3(10500m)
Di, 21.01. 14:20 3(10500m)
Di, 21.01. 14:10 keine Wolken
Di, 21.01. 14:00 keine Wolken
Di, 21.01. 13:30 4(12000m)
Di, 21.01. 13:00 keine Wolken
Di, 21.01. 12:30 keine Wolken
Di, 21.01. 12:00 keine Wolken
Ortszeit Luftdruck NN (hPa) Tendenz (hPa in 3 Std.)
Di, 21.01. 13:00 1042 - 0,5
Di, 21.01. 7:00 1044 - 0,6
Di, 21.01. 1:00 1045 - 1,1
Mo, 20.01. 19:00 1047 - 0,4
Mo, 20.01. 13:00 1048 + 0,2
Mo, 20.01. 7:00 1046 + 0,2
Mo, 20.01. 1:00 1045 + 1,6
So, 19.01. 19:00 1042 + 2,6
Ortszeit Luftdruck NN (hPa) Tendenz (hPa in 3 Std.)
Di, 21.01. 15:00 1041 - 1,9
Di, 21.01. 14:50 1041 keine Meldung
Di, 21.01. 14:40 1041 keine Meldung
Di, 21.01. 14:30 1041 - 1,6
Di, 21.01. 14:20 1041 keine Meldung
Di, 21.01. 14:10 1041 keine Meldung
Di, 21.01. 14:00 1042 - 1,3
Di, 21.01. 13:30 1042 - 1,1
Di, 21.01. 13:00 1042 - 0,5
Di, 21.01. 12:30 1043 - 0,3
Di, 21.01. 12:00 1043 + 0,1
Ortszeit Schneehöhe (cm)
Di, 21.01. 13:00 0
Di, 21.01. 7:00 0
Di, 21.01. 1:00 0
Mo, 20.01. 19:00 0
Mo, 20.01. 13:00 0
Mo, 20.01. 7:00 0
Mo, 20.01. 1:00 0
So, 19.01. 19:00 0
Ortszeit Schneehöhe (cm)
Di, 21.01. 15:00 0
Di, 21.01. 14:50 0
Di, 21.01. 14:40 0
Di, 21.01. 14:30 0
Di, 21.01. 14:20 0
Di, 21.01. 14:10 0
Di, 21.01. 14:00 0
Di, 21.01. 13:30 0
Di, 21.01. 13:00 0
Di, 21.01. 12:30 0
Di, 21.01. 12:00 0
Link zu dieser Seite / Seite empfehlen

Das Wetter in ...